Time;durP1;ratioP1;P1;durP2;ratioP2;P2;SDS_P1;SDS_P2;PMS_P1;PMS_P2;Temp;Humidity;BMP_temperature;BMP_pressure;BME280_temperature;BME280_humidity;BME280_pressure;Samples;Min_cycle;Max_cycle;Signal;HPM_P1;HPM_P2
2022/06/20 00:01:24;;;;;;;19.17;3.95;;;;;;;-144.47;54.52;53128.22;5040093;28;20112;-65
2022/06/20 00:03:50;;;;;;;16.98;3.80;;;;;;;-144.47;54.41;53152.03;5046183;28;20545;-67
2022/06/20 00:06:19;;;;;;;14.35;3.65;;;;;;;-144.47;54.78;53080.53;5046097;28;20103;-66
2022/06/20 00:08:52;;;;;;;16.70;4.50;;;;;;;-144.47;55.07;53140.13;5043594;23;20144;-91
2022/06/20 00:11:24;;;;;;;24.17;4.20;;;;;;;-144.47;55.09;53132.19;5038829;28;20032;-89
2022/06/20 00:13:56;;;;;;;20.13;5.28;;;;;;;-144.47;55.19;53132.19;5020793;28;20083;-89
2022/06/20 00:16:32;;;;;;;15.45;5.13;;;;;;;-144.47;55.29;53156.00;5036657;28;20116;-90
2022/06/20 00:19:09;;;;;;;22.00;5.88;;;;;;;-144.47;55.27;53140.13;5038479;28;20033;-91
2022/06/20 00:21:42;;;;;;;26.63;6.43;;;;;;;-144.47;55.08;53140.13;5040419;28;20152;-91
2022/06/20 00:24:26;;;;;;;;;;;;;;;;;;;;;
2022/06/20 00:27:11;;;;;;;28.80;7.07;;;;;;;-144.47;55.24;53154.03;5041571;28;20109;-91
2022/06/20 00:29:53;;;;;;;25.00;8.55;;;;;;;-144.47;55.16;53142.09;5048486;28;20021;-89
2022/06/20 00:32:36;;;;;;;20.83;6.47;;;;;;;-144.47;55.03;53128.22;5054655;28;20048;-90
2022/06/20 00:35:14;;;;;;;26.88;6.25;;;;;;;-144.47;54.97;53144.09;5057559;28;20029;-90
2022/06/20 00:37:48;;;;;;;28.63;6.93;;;;;;;-144.47;54.74;53142.09;5061819;28;20025;-90
2022/06/20 00:40:32;;;;;;;20.83;6.50;;;;;;;-144.47;54.67;53110.31;5079239;28;20081;-90
2022/06/20 00:43:11;;;;;;;29.77;6.65;;;;;;;-144.47;54.43;53104.38;5078415;28;20025;-89
2022/06/20 00:45:43;;;;;;;23.13;6.05;;;;;;;-144.47;54.32;53108.34;5078057;28;20024;-89
2022/06/20 00:48:45;;;;;;;18.75;6.45;;;;;;;-144.47;54.28;53152.03;5078202;28;20023;-91
2022/06/20 00:51:23;;;;;;;21.83;5.40;;;;;;;-144.47;54.00;53116.28;5048076;28;20053;-88
2022/06/20 00:54:32;;;;;;;17.25;5.88;;;;;;;-144.47;53.86;53126.22;5021494;28;20093;-90
2022/06/20 00:57:42;;;;;;;25.13;5.95;;;;;;;-144.47;54.09;53084.50;5018106;28;20061;-89
2022/06/20 01:00:13;;;;;;;23.52;5.40;;;;;;;-144.47;54.78;53124.22;5037998;28;20090;-90
2022/06/20 01:02:46;;;;;;;22.63;5.32;;;;;;;-144.47;55.94;53120.25;5046714;28;20036;-90
2022/06/20 01:05:27;;;;;;;21.33;5.28;;;;;;;-144.47;58.24;53118.28;5037867;28;20034;-89
2022/06/20 01:08:00;;;;;;;20.30;6.22;;;;;;;-144.47;59.34;53150.06;5033969;28;20422;-89
2022/06/20 01:10:37;;;;;;;23.30;6.32;;;;;;;-144.47;59.97;53130.19;5037638;28;20096;-89
2022/06/20 01:13:07;;;;;;;20.05;5.30;;;;;;;-144.47;59.99;53138.13;5034879;28;20132;-88
2022/06/20 01:15:39;;;;;;;22.38;5.57;;;;;;;-144.47;60.76;53140.13;5034947;28;20040;-88
2022/06/20 01:18:24;;;;;;;18.30;5.80;;;;;;;-144.47;61.24;53165.94;5033910;28;20065;-88
2022/06/20 01:21:00;;;;;;;20.40;5.78;;;;;;;-144.47;60.87;53130.19;5033800;28;20057;-90
2022/06/20 01:23:50;;;;;;;21.45;5.68;;;;;;;-144.47;61.02;53146.09;5020088;28;20030;-88
2022/06/20 01:26:29;;;;;;;21.63;5.70;;;;;;;-144.47;61.31;53140.13;5035652;28;20087;-88
2022/06/20 01:28:59;;;;;;;;;;;;;;;-144.47;62.01;53144.09;5045308;28;20059;-88
2022/06/20 01:31:25;;;;;;;22.15;5.60;;;;;;;-144.47;61.85;53177.88;5057648;28;19920;-89
2022/06/20 01:33:52;;;;;;;17.08;6.18;;;;;;;-144.47;62.14;53148.06;5069258;28;20045;-90
2022/06/20 01:39:05;;;;;;;25.17;5.65;;;;;;;-144.47;62.66;53150.06;5063852;28;20102;-89
2022/06/20 01:44:20;;;;;;;19.23;5.25;;;;;;;-144.47;62.56;53156.00;5066536;28;20052;-89
2022/06/20 01:46:49;;;;;;;29.30;6.65;;;;;;;-144.47;63.10;53156.00;5061528;28;20021;-89
2022/06/20 01:49:19;;;;;;;24.35;6.00;;;;;;;-144.47;62.96;53160.00;5062260;28;20029;-89
2022/06/20 01:52:07;;;;;;;20.67;6.22;;;;;;;-144.47;63.20;53160.00;5063731;28;20029;-89
2022/06/20 01:54:46;;;;;;;28.77;6.57;;;;;;;-144.47;63.83;53156.00;5065115;28;20017;-88
2022/06/20 01:57:12;;;;;;;24.25;6.38;;;;;;;-144.47;64.50;53146.09;5057651;28;20029;-89
2022/06/20 01:59:46;;;;;;;24.52;6.13;;;;;;;-144.47;64.92;53175.88;5056795;28;20025;-88
2022/06/20 02:02:13;;;;;;;36.78;8.30;;;;;;;-144.47;64.38;53215.59;5056547;28;20020;-88
2022/06/20 02:04:44;;;;;;;28.23;8.73;;;;;;;-144.47;64.51;53167.94;5055230;28;20079;-87
2022/06/20 02:07:12;;;;;;;26.02;8.32;;;;;;;-144.47;64.47;53140.13;5059135;28;20487;-90
2022/06/20 02:09:44;;;;;;;34.50;8.82;;;;;;;-144.47;64.45;53167.94;5069553;28;20473;-89
2022/06/20 02:12:11;;;;;;;27.50;8.27;;;;;;;-144.47;64.30;53189.78;5065006;28;20067;-89
2022/06/20 02:14:54;;;;;;;28.48;7.55;;;;;;;-144.47;65.17;53165.94;5065520;28;20024;-88
2022/06/20 02:17:25;;;;;;;30.33;7.68;;;;;;;-144.47;65.27;53185.81;5063929;28;20376;-88
2022/06/20 02:19:57;;;;;;;28.27;6.97;;;;;;;-144.47;65.04;53199.72;5062313;28;20024;-89
2022/06/20 02:22:25;;;;;;;32.70;8.65;;;;;;;-144.47;65.42;53158.00;5058059;28;20045;-89
2022/06/20 02:24:58;;;;;;;27.35;7.22;;;;;;;-144.47;65.34;53181.84;5054847;28;20111;-88
2022/06/20 02:27:31;;;;;;;29.38;6.75;;;;;;;-144.47;65.22;53167.94;5054646;28;20051;-90
2022/06/20 02:30:01;;;;;;;24.27;6.57;;;;;;;-144.47;64.52;53193.75;5083811;28;20035;-88
2022/06/20 02:32:34;;;;;;;25.13;6.32;;;;;;;-144.47;64.54;53179.84;5056134;28;20040;-90
2022/06/20 02:35:04;;;;;;;25.80;6.68;;;;;;;-144.47;64.82;53165.94;5053613;28;20021;-89
2022/06/20 02:37:37;;;;;;;33.40;7.95;;;;;;;-144.47;65.25;53169.91;5054001;28;20055;-89
2022/06/20 02:40:11;;;;;;;26.65;7.20;;;;;;;-144.47;64.35;53175.88;5055046;28;20016;-89
2022/06/20 02:43:00;;;;;;;31.83;8.60;;;;;;;-144.47;64.78;53209.66;5053537;28;20078;-90
2022/06/20 02:45:32;;;;;;;21.00;7.43;;;;;;;-144.47;64.62;53177.88;5054352;28;20048;-89
2022/06/20 02:48:04;;;;;;;34.42;6.72;;;;;;;-144.47;64.99;53205.66;5052527;28;20025;-89
2022/06/20 02:50:35;;;;;;;30.13;8.07;;;;;;;-144.47;64.71;53152.03;5033318;28;20021;-89
2022/06/20 02:53:05;;;;;;;28.25;8.27;;;;;;;-144.47;63.85;53189.78;5045910;28;20043;-88
2022/06/20 02:55:37;;;;;;;42.70;8.63;;;;;;;-144.47;64.17;53169.91;5055856;28;20036;-88
2022/06/20 02:58:12;;;;;;;33.67;9.77;;;;;;;-144.47;63.67;53193.75;5056347;28;20045;-87
2022/06/20 03:00:58;;;;;;;32.78;10.32;;;;;;;-144.47;64.02;53185.81;5055217;28;20096;-88
2022/06/20 03:03:35;;;;;;;36.85;10.63;;;;;;;-144.47;64.14;53197.72;5055967;28;20055;-89
2022/06/20 03:06:06;;;;;;;38.38;9.18;;;;;;;-144.47;64.22;53179.84;5061809;28;20025;-89
2022/06/20 03:08:36;;;;;;;32.83;9.88;;;;;;;-144.47;64.05;53193.75;5061402;28;20029;-89
2022/06/20 03:11:15;;;;;;;34.28;10.60;;;;;;;-144.47;64.09;53213.63;5057640;28;20170;-89
2022/06/20 03:13:46;;;;;;;;;;;;;;;-144.47;64.28;53215.59;5046109;28;20131;-88
2022/06/20 03:16:15;;;;;;;38.10;10.60;;;;;;;-144.47;64.48;53193.75;5055519;28;19908;-88
2022/06/20 03:18:49;;;;;;;49.00;10.90;;;;;;;-144.47;64.69;53197.72;5056495;28;20051;-89
2022/06/20 03:21:22;;;;;;;35.83;11.38;;;;;;;-144.47;64.98;53179.84;5056852;28;20021;-89
2022/06/20 03:23:47;;;;;;;39.45;11.75;;;;;;;-144.47;65.29;53171.91;5056486;28;20067;-89
2022/06/20 03:26:23;;;;;;;48.90;11.93;;;;;;;-144.47;65.30;53189.78;5046089;28;20458;-88
2022/06/20 03:28:49;;;;;;;43.63;12.05;;;;;;;-144.47;65.04;53169.91;5032485;28;20021;-88
2022/06/20 03:31:15;;;;;;;40.75;12.48;;;;;;;-144.47;64.74;53177.88;5049804;28;20427;-89
2022/06/20 03:34:03;;;;;;;40.13;11.25;;;;;;;-144.47;65.02;53209.66;5034966;28;20124;-89
2022/06/20 03:36:29;;;;;;;42.38;11.57;;;;;;;-144.47;64.94;53187.78;5049958;28;20026;-89
2022/06/20 03:38:56;;;;;;;43.42;11.38;;;;;;;-144.47;64.72;53201.69;5032929;28;20037;-87
2022/06/20 03:41:27;;;;;;;36.97;9.77;;;;;;;-144.47;64.87;53199.72;5034631;28;20025;-90
2022/06/20 03:44:12;;;;;;;47.88;11.13;;;;;;;-144.47;64.70;53150.06;5045462;28;20066;-90
2022/06/20 03:46:53;;;;;;;52.83;11.23;;;;;;;-144.47;64.49;53161.97;5053294;28;20124;-88
2022/06/20 03:49:31;;;;;;;37.83;10.57;;;;;;;-144.47;64.30;53132.19;5053411;28;20025;-89
2022/06/20 03:52:17;;;;;;;40.28;10.70;;;;;;;-144.47;64.29;53167.94;5052364;28;20043;-90
2022/06/20 03:54:49;;;;;;;43.80;11.00;;;;;;;-144.47;63.94;53177.88;5052973;28;20039;-90
2022/06/20 03:57:31;;;;;;;48.90;11.05;;;;;;;-144.47;63.94;53169.91;5054057;28;20088;-89
2022/06/20 04:00:08;;;;;;;39.92;9.48;;;;;;;-144.47;63.60;53201.69;5056097;28;20024;-90
2022/06/20 04:02:51;;;;;;;50.80;11.48;;;;;;;-144.47;63.55;53161.97;5055872;28;20082;-90
2022/06/20 04:05:40;;;;;;;34.97;10.27;;;;;;;-144.47;63.04;53158.00;5056640;28;20104;-88
2022/06/20 04:10:57;;;;;;;;;;;;;;;-144.47;63.08;53187.78;5054821;28;20031;-87
2022/06/20 04:11:26;;;;;;;34.60;10.20;;;;;;;-144.47;62.84;53175.88;5061111;28;19919;-89
2022/06/20 04:14:34;;;;;;;37.17;10.05;;;;;;;-144.47;62.87;53197.72;5064531;28;20036;-91
2022/06/20 04:21:11;;;;;;;36.17;10.05;;;;;;;-144.47;62.21;53197.72;5070862;28;20107;-90
2022/06/20 04:24:16;;;;;;;42.15;10.25;;;;;;;-144.47;61.23;53169.91;5036013;28;20040;-90
2022/06/20 04:27:16;;;;;;;45.85;9.85;;;;;;;-144.47;60.34;53165.94;5064545;28;20024;-89
2022/06/20 04:29:58;;;;;;;32.80;9.73;;;;;;;-144.47;60.21;53193.75;5057566;28;20101;-89
2022/06/20 04:33:08;;;;;;;39.65;9.93;;;;;;;-144.47;60.05;53191.78;5061561;28;20805;-89
2022/06/20 04:36:04;;;;;;;43.90;11.05;;;;;;;-144.47;60.19;53128.22;5020498;28;20042;-92
2022/06/20 04:39:23;;;;;;;;;;;;;;;;;;;;;
2022/06/20 04:42:20;;;;;;;;;;;;;;;;;;;;;
2022/06/20 04:49:19;;;;;;;47.35;9.55;;;;;;;-144.47;59.34;53158.00;4969350;29;20130;-92
2022/06/20 04:52:13;;;;;;;31.58;8.50;;;;;;;-144.47;59.11;53134.16;4958730;28;20110;-89
2022/06/20 04:57:48;;;;;;;44.33;10.77;;;;;;;-144.47;60.94;53181.84;4989965;28;20039;-90
2022/06/20 05:08:59;;;;;;;;;;;;;;;;;;;;;
2022/06/20 05:21:55;;;;;;;60.83;21.83;;;;;;;-144.47;75.93;53243.41;4863968;29;20083;-89
2022/06/20 05:28:53;;;;;;;;;;;;;;;;;;;;;
2022/06/20 05:35:31;;;;;;;25.77;10.25;;;;;;;-144.47;75.69;53253.34;4964406;22;20063;-68
2022/06/20 05:38:03;;;;;;;24.40;9.45;;;;;;;-144.47;74.89;53261.28;5020385;28;20056;-69
2022/06/20 05:40:36;;;;;;;28.90;9.30;;;;;;;-144.47;74.99;53203.69;5039617;28;20404;-69
2022/06/20 05:43:02;;;;;;;24.27;8.55;;;;;;;-144.47;74.52;53175.88;5050084;28;20040;-69
2022/06/20 05:45:29;;;;;;;19.73;8.43;;;;;;;-144.47;74.29;53201.69;5028178;28;20025;-69
2022/06/20 05:47:58;;;;;;;28.17;9.27;;;;;;;-144.47;74.63;53199.72;5024955;28;20029;-70
2022/06/20 05:50:48;;;;;;;18.52;8.75;;;;;;;-144.47;74.34;53243.41;5017749;28;20014;-70
2022/06/20 05:53:24;;;;;;;14.43;7.57;;;;;;;-144.47;73.63;53225.53;5025812;28;20040;-69
2022/06/20 05:55:53;;;;;;;22.30;8.07;;;;;;;-144.47;74.02;53229.50;5029986;28;20032;-71
2022/06/20 05:58:24;;;;;;;18.77;8.45;;;;;;;-144.47;73.50;53229.50;5028597;28;20030;-72
2022/06/20 06:00:53;;;;;;;13.90;6.95;;;;;;;-144.47;72.29;53227.53;5029791;28;20454;-71
2022/06/20 06:03:25;;;;;;;16.23;6.45;;;;;;;-144.47;71.87;53195.75;5035679;28;20153;-72
2022/06/20 06:05:58;;;;;;;15.13;6.88;;;;;;;-144.47;71.53;53205.66;5020235;28;20040;-70
2022/06/20 06:08:35;;;;;;;19.80;6.22;;;;;;;-144.47;72.11;53197.72;5029971;28;20529;-70
2022/06/20 06:11:16;;;;;;;13.50;6.32;;;;;;;-144.47;70.34;53223.56;5033394;28;20013;-73
2022/06/20 06:14:03;;;;;;;18.85;6.20;;;;;;;-144.47;70.03;53211.63;5032771;28;20044;-70
2022/06/20 06:16:49;;;;;;;19.58;7.03;;;;;;;-144.47;69.70;53233.47;5047271;28;20062;-71
2022/06/20 06:19:33;;;;;;;24.00;8.77;;;;;;;-144.47;70.88;53225.53;5040552;28;20044;-70
2022/06/20 06:22:01;;;;;;;16.35;8.05;;;;;;;-144.47;68.44;53243.41;5046748;28;20172;-70
2022/06/20 06:24:29;;;;;;;20.40;8.00;;;;;;;-144.47;69.05;53217.59;5032807;28;20022;-68
2022/06/20 06:26:58;;;;;;;19.92;8.05;;;;;;;-144.47;69.41;53201.69;5026574;28;20034;-68
2022/06/20 06:29:23;;;;;;;14.93;7.57;;;;;;;-144.47;69.69;53199.72;5025100;28;20498;-70
2022/06/20 06:31:56;;;;;;;20.02;7.85;;;;;;;-144.47;69.27;53179.84;5041276;28;20028;-68
2022/06/20 06:34:33;;;;;;;24.45;7.30;;;;;;;-144.47;68.80;53193.75;5037796;28;20047;-67
2022/06/20 06:37:07;;;;;;;16.17;7.15;;;;;;;-144.47;68.94;53225.53;5041488;28;20025;-69
2022/06/20 06:39:40;;;;;;;22.65;9.02;;;;;;;-144.47;68.88;53175.88;5038626;28;20506;-69
2022/06/20 06:42:12;;;;;;;24.38;7.43;;;;;;;-144.47;70.13;53203.69;5047028;28;20037;-70
2022/06/20 06:44:51;;;;;;;23.23;7.70;;;;;;;-144.47;70.36;53197.72;5043079;28;20107;-70
2022/06/20 06:47:19;;;;;;;;;;;;;;;-144.47;70.00;53209.66;5027111;28;20117;-69
2022/06/20 06:49:53;;;;;;;18.83;8.00;;;;;;;-144.47;69.87;53265.25;5010844;28;19917;-67
2022/06/20 06:52:42;;;;;;;18.25;6.68;;;;;;;-144.47;69.52;53225.53;5031254;28;20517;-70
2022/06/20 06:55:41;;;;;;;16.38;7.45;;;;;;;-144.47;69.15;53203.69;5048110;28;20131;-70
2022/06/20 06:58:22;;;;;;;24.38;8.27;;;;;;;-144.47;68.73;53205.66;5019952;28;20432;-70
2022/06/20 07:00:55;;;;;;;13.45;6.93;;;;;;;-144.47;67.54;53207.66;5036026;28;20052;-69
2022/06/20 07:03:27;;;;;;;16.27;7.65;;;;;;;-144.47;66.46;53175.88;5028810;28;20435;-73
2022/06/20 07:05:58;;;;;;;15.95;6.90;;;;;;;-144.47;65.69;53209.66;5036677;28;20401;-73
2022/06/20 07:08:28;;;;;;;16.88;5.95;;;;;;;-144.47;64.67;53179.84;5048209;28;20029;-70
2022/06/20 07:11:24;;;;;;;14.98;5.88;;;;;;;-144.47;64.36;53223.56;5046258;28;20395;-71
2022/06/20 07:13:55;;;;;;;17.92;6.38;;;;;;;-144.47;64.80;53183.81;5025160;28;20136;-69
2022/06/20 07:16:28;;;;;;;12.98;5.78;;;;;;;-144.47;66.01;53247.38;5015715;28;20131;-69
2022/06/20 07:18:56;;;;;;;19.65;6.95;;;;;;;-144.47;67.49;53215.59;5027427;28;20071;-68
2022/06/20 07:21:25;;;;;;;19.23;6.75;;;;;;;-144.47;68.52;53205.66;5029189;28;20028;-70
2022/06/20 07:23:55;;;;;;;;;;;;;;;-144.47;68.73;53173.88;5036317;28;20490;-69
2022/06/20 07:26:22;;;;;;;19.27;7.50;;;;;;;-144.47;69.31;53235.47;5036403;28;20382;-71
2022/06/20 07:28:57;;;;;;;20.75;8.40;;;;;;;-144.47;69.62;53257.31;5031935;28;20426;-68
2022/06/20 07:31:35;;;;;;;18.63;7.97;;;;;;;-144.47;69.24;53221.56;5038269;28;20025;-71
2022/06/20 07:34:33;;;;;;;21.37;7.97;;;;;;;-144.47;68.83;53207.66;5040979;28;20047;-67
2022/06/20 07:37:04;;;;;;;21.60;8.40;;;;;;;-144.47;68.17;53219.56;5030628;28;20478;-72
2022/06/20 07:40:02;;;;;;;18.33;8.55;;;;;;;-144.47;66.75;53181.84;5044262;28;20029;-70
2022/06/20 07:42:32;;;;;;;17.00;8.50;;;;;;;-144.47;66.93;53221.56;5040201;28;20041;-68
2022/06/20 07:45:05;;;;;;;19.05;8.55;;;;;;;-144.47;66.86;53203.69;5027772;28;20108;-68
2022/06/20 07:48:08;;;;;;;24.73;10.80;;;;;;;-144.47;67.53;53205.66;5027078;28;20461;-69
2022/06/20 07:50:55;;;;;;;20.35;8.45;;;;;;;-144.47;66.69;53195.75;5019718;28;20541;-67
2022/06/20 07:53:24;;;;;;;20.52;9.07;;;;;;;-144.47;66.76;53177.88;5038212;28;20355;-69
2022/06/20 07:56:01;;;;;;;17.95;8.77;;;;;;;-144.47;66.83;53221.56;5029067;28;20216;-67
2022/06/20 07:58:31;;;;;;;19.80;9.50;;;;;;;-144.47;67.63;53231.50;5029822;28;20463;-69
2022/06/20 08:00:58;;;;;;;22.15;9.38;;;;;;;-144.47;66.76;53205.66;5039649;28;20040;-69
2022/06/20 08:03:55;;;;;;;28.95;10.73;;;;;;;-144.47;67.48;53231.50;5047561;28;20538;-70
2022/06/20 08:06:27;;;;;;;26.58;10.30;;;;;;;-144.47;67.88;53195.75;5027774;28;20055;-70
2022/06/20 08:08:59;;;;;;;17.25;9.20;;;;;;;-144.47;68.13;53217.59;5027085;28;20026;-70
2022/06/20 08:11:42;;;;;;;24.45;10.52;;;;;;;-144.47;67.74;53197.72;5028477;28;20025;-68
2022/06/20 08:14:23;;;;;;;21.55;9.80;;;;;;;-144.47;67.78;53205.66;5028206;28;20056;-70
2022/06/20 08:16:52;;;;;;;19.85;9.70;;;;;;;-144.47;67.92;53217.59;5031365;28;20041;-68
2022/06/20 08:19:18;;;;;;;20.73;9.98;;;;;;;-144.47;68.80;53187.78;5045641;28;20029;-69
2022/06/20 08:21:56;;;;;;;23.50;10.73;;;;;;;-144.47;68.30;53249.38;5047859;28;20017;-69
2022/06/20 08:24:34;;;;;;;21.10;11.30;;;;;;;-144.47;69.44;53221.56;5039034;28;20046;-67
2022/06/20 08:27:14;;;;;;;21.00;10.30;;;;;;;-144.47;68.40;53231.50;5030770;28;20037;-70
2022/06/20 08:29:45;;;;;;;20.73;9.98;;;;;;;-144.47;68.20;53191.78;5022186;28;20021;-69
2022/06/20 08:32:34;;;;;;;21.25;11.15;;;;;;;-144.47;68.53;53229.50;5028184;28;20029;-70
2022/06/20 08:35:32;;;;;;;24.83;11.00;;;;;;;-144.47;68.00;53277.19;5027492;28;20131;-68
2022/06/20 08:38:09;;;;;;;17.60;9.43;;;;;;;-144.47;68.20;53217.59;5043250;28;20124;-68
2022/06/20 08:40:40;;;;;;;19.75;11.23;;;;;;;-144.47;68.35;53243.41;5039034;28;20025;-67
2022/06/20 08:44:04;;;;;;;18.33;10.38;;;;;;;-144.47;67.75;53181.84;5033350;28;20457;-67
2022/06/20 08:47:07;;;;;;;30.10;12.07;;;;;;;-144.47;67.65;53205.66;5005256;28;20029;-68
2022/06/20 08:50:10;;;;;;;21.23;11.07;;;;;;;-144.47;68.30;53181.84;4981542;28;20415;-69
2022/06/20 08:52:59;;;;;;;18.15;11.00;;;;;;;-144.47;68.32;53277.19;5002416;28;20113;-68
2022/06/20 08:55:53;;;;;;;19.23;10.38;;;;;;;-144.47;68.38;53237.44;5004092;28;20435;-67
2022/06/20 08:58:45;;;;;;;17.05;10.55;;;;;;;-144.47;68.35;53233.47;5000420;28;20447;-67
2022/06/20 09:01:22;;;;;;;15.45;9.50;;;;;;;-144.47;68.51;53259.31;4988505;28;20031;-69
2022/06/20 09:04:34;;;;;;;14.52;9.43;;;;;;;-144.47;68.35;53223.56;5003415;28;20048;-67
2022/06/20 09:07:21;;;;;;;14.48;9.00;;;;;;;-144.47;68.82;53249.38;4973827;28;20500;-68
2022/06/20 09:09:53;;;;;;;16.52;10.52;;;;;;;-144.47;68.51;53205.66;5000153;28;20032;-67
2022/06/20 09:13:01;;;;;;;19.45;11.20;;;;;;;-144.47;68.50;53241.44;5001281;28;20030;-68
2022/06/20 09:15:44;;;;;;;18.33;11.63;;;;;;;-144.47;69.01;53243.41;4991299;28;20029;-69
2022/06/20 09:18:24;;;;;;;14.57;11.30;;;;;;;-144.47;68.04;53243.41;5027826;28;20249;-69
2022/06/20 09:21:27;;;;;;;15.75;8.82;;;;;;;-144.47;67.43;53205.66;5051255;28;20096;-70
2022/06/20 09:24:21;;;;;;;14.15;8.93;;;;;;;-144.47;67.53;53261.28;5028606;28;20068;-69
2022/06/20 09:27:09;;;;;;;19.67;10.38;;;;;;;-144.47;68.18;53261.28;5051709;28;20051;-68
2022/06/20 09:29:37;;;;;;;19.60;8.50;;;;;;;-144.47;67.90;53287.13;5032947;28;20040;-68
2022/06/20 09:32:17;;;;;;;12.82;7.72;;;;;;;-144.47;68.18;53229.50;5030858;28;20488;-68
2022/06/20 09:34:49;;;;;;;15.82;7.05;;;;;;;-144.47;68.03;53233.47;5027605;28;20121;-69
2022/06/20 09:37:43;;;;;;;23.85;9.20;;;;;;;-144.47;68.26;53219.56;5035533;28;20058;-70
2022/06/20 09:40:18;;;;;;;27.55;8.38;;;;;;;-144.47;68.32;53247.38;5028267;28;20017;-70
2022/06/20 09:43:11;;;;;;;11.00;6.53;;;;;;;-144.47;68.35;53263.28;5034081;28;20021;-68
2022/06/20 09:46:01;;;;;;;10.75;5.07;;;;;;;-144.47;68.45;53237.44;5041836;28;20583;-69
2022/06/20 09:48:32;;;;;;;11.95;4.80;;;;;;;-144.47;69.29;53221.56;5029337;28;20415;-69
2022/06/20 09:51:12;;;;;;;13.68;6.05;;;;;;;-144.47;69.36;53261.28;5022033;28;20215;-70
2022/06/20 09:54:02;;;;;;;8.48;4.55;;;;;;;-144.47;68.50;53269.22;5043296;28;20103;-68
2022/06/20 09:56:36;;;;;;;11.00;4.03;;;;;;;-144.47;68.04;53229.50;5059483;22;20177;-71
2022/06/20 09:59:28;;;;;;;8.50;3.88;;;;;;;-144.47;68.51;53245.41;5049998;28;20021;-69
2022/06/20 10:02:25;;;;;;;11.57;4.13;;;;;;;-144.47;68.41;53239.44;5049651;28;20033;-71
2022/06/20 10:04:59;;;;;;;9.48;4.60;;;;;;;-144.47;67.92;53245.41;5051990;28;20052;-72
2022/06/20 10:07:50;;;;;;;6.70;4.20;;;;;;;-144.47;68.97;53257.31;5053940;28;20043;-72
2022/06/20 10:10:28;;;;;;;9.98;5.53;;;;;;;-144.47;70.12;53207.66;5051798;28;20024;-72
2022/06/20 10:13:08;;;;;;;12.10;5.13;;;;;;;-144.47;70.08;53273.22;5064761;28;20025;-72
2022/06/20 10:15:43;;;;;;;8.65;5.03;;;;;;;-144.47;70.70;53269.22;5024305;28;20100;-71
2022/06/20 10:18:30;;;;;;;13.73;5.65;;;;;;;-144.47;71.20;53287.13;5037701;28;20562;-71
2022/06/20 10:20:55;;;;;;;14.88;5.55;;;;;;;-144.47;70.87;53277.19;5038780;28;20032;-72
2022/06/20 10:23:59;;;;;;;10.05;6.18;;;;;;;-144.47;70.74;53267.25;5028809;28;20025;-72
2022/06/20 10:26:47;;;;;;;12.27;7.07;;;;;;;-144.47;70.90;53267.25;5029262;28;20025;-72
2022/06/20 10:29:52;;;;;;;12.25;7.50;;;;;;;-144.47;70.29;53295.06;5029577;28;20025;-72
2022/06/20 10:32:56;;;;;;;13.32;7.30;;;;;;;-144.47;70.69;53263.28;5028549;28;20053;-71
2022/06/20 10:35:38;;;;;;;15.35;8.30;;;;;;;-144.47;71.40;53243.41;5006626;28;20045;-72
2022/06/20 10:38:16;;;;;;;15.02;8.85;;;;;;;-144.47;71.24;53261.28;5023033;28;20376;-71
2022/06/20 10:41:02;;;;;;;14.67;7.57;;;;;;;-144.47;70.12;53281.16;5022291;28;20037;-70
2022/06/20 10:43:47;;;;;;;9.35;6.75;;;;;;;-144.47;70.58;53281.16;5012398;28;20052;-72
2022/06/20 10:46:25;;;;;;;14.68;6.78;;;;;;;-144.47;70.68;53233.47;5022275;28;20087;-70
2022/06/20 10:48:59;;;;;;;14.27;7.03;;;;;;;-144.47;71.18;53257.31;5021387;28;20178;-69
2022/06/20 10:51:43;;;;;;;11.48;6.90;;;;;;;-144.47;71.50;53253.34;5023829;28;20059;-70
2022/06/20 10:54:50;;;;;;;11.73;7.03;;;;;;;-144.47;71.63;53271.22;5021636;28;20040;-70
2022/06/20 10:57:21;;;;;;;11.13;6.45;;;;;;;-144.47;72.19;53253.34;5022675;28;20037;-71
2022/06/20 11:00:05;;;;;;;12.75;6.32;;;;;;;-144.47;72.87;53281.16;5020944;28;20190;-70
2022/06/20 11:03:09;;;;;;;7.78;5.82;;;;;;;-144.47;75.21;53259.31;5021486;28;20026;-69
2022/06/20 11:05:40;;;;;;;6.38;4.30;;;;;;;-144.47;75.04;53265.25;5019924;28;20070;-72
2022/06/20 11:08:36;;;;;;;10.60;5.18;;;;;;;-144.47;75.67;53293.06;5022908;28;20079;-70
2022/06/20 11:11:08;;;;;;;6.07;3.42;;;;;;;-144.47;75.61;53257.31;5021208;28;20049;-69
2022/06/20 11:13:47;;;;;;;8.30;4.10;;;;;;;-144.47;76.36;53229.50;5022580;28;20052;-69
2022/06/20 11:16:44;;;;;;;7.82;4.03;;;;;;;-144.47;74.88;53305.00;5021365;28;20052;-69
2022/06/20 11:19:18;;;;;;;17.50;4.20;;;;;;;-144.47;74.69;53301.03;5021691;28;20029;-69
2022/06/20 11:22:10;;;;;;;5.78;3.50;;;;;;;-144.47;73.53;53320.88;5023870;28;20115;-72
2022/06/20 11:24:40;;;;;;;10.23;3.92;;;;;;;-144.47;74.16;53273.22;5021849;28;20102;-69
2022/06/20 11:27:39;;;;;;;5.78;2.67;;;;;;;-144.47;72.92;53297.03;5021341;28;20021;-67
2022/06/20 11:30:11;;;;;;;9.93;3.95;;;;;;;-144.47;73.03;53263.28;5019820;28;20034;-68
2022/06/20 11:32:42;;;;;;;6.10;3.00;;;;;;;-144.47;73.67;53301.03;5022202;28;20037;-70
2022/06/20 11:35:25;;;;;;;16.08;5.15;;;;;;;-144.47;74.26;53289.09;5023175;28;20783;-68
2022/06/20 11:38:03;;;;;;;24.63;5.07;;;;;;;-144.47;73.52;53287.13;5027428;28;20022;-70
2022/06/20 11:40:50;;;;;;;10.27;3.92;;;;;;;-144.47;73.60;53332.81;5026412;28;20018;-70
2022/06/20 11:43:26;;;;;;;17.83;4.53;;;;;;;-144.47;74.39;53271.22;5029728;28;20033;-70
2022/06/20 11:46:14;;;;;;;13.13;4.63;;;;;;;-144.47;74.40;53297.03;5028361;28;20048;-70
2022/06/20 11:48:54;;;;;;;12.75;4.57;;;;;;;-144.47;75.83;53352.66;5016974;28;20018;-70
2022/06/20 11:51:51;;;;;;;8.90;4.25;;;;;;;-144.47;75.48;53310.94;5028535;28;20510;-69
2022/06/20 11:54:35;;;;;;;6.88;3.47;;;;;;;-144.47;75.19;53305.00;5041902;28;20025;-68
2022/06/20 11:57:13;;;;;;;9.57;3.67;;;;;;;-144.47;76.03;53289.09;5043565;28;20029;-68
2022/06/20 11:59:38;;;;;;;9.20;4.57;;;;;;;-144.47;76.57;53305.00;5045836;28;20053;-69
2022/06/20 12:02:34;;;;;;;15.68;4.05;;;;;;;-144.47;77.15;53297.03;5027457;28;20063;-70
2022/06/20 12:05:18;;;;;;;7.50;4.53;;;;;;;-144.47;77.32;53285.13;5034835;28;20519;-72
2022/06/20 12:07:48;;;;;;;9.68;5.03;;;;;;;-144.47;77.27;53305.00;5029555;28;20033;-72
2022/06/20 12:10:33;;;;;;;10.57;4.78;;;;;;;-144.47;76.90;53287.13;5031592;28;20383;-71
2022/06/20 12:13:11;;;;;;;7.90;4.40;;;;;;;-144.47;77.52;53265.25;5048725;28;20056;-69
2022/06/20 12:15:39;;;;;;;6.82;4.05;;;;;;;-144.47;77.15;53295.06;5040384;28;20037;-72
2022/06/20 12:18:10;;;;;;;5.65;3.13;;;;;;;-144.47;76.21;53328.81;5029007;28;20100;-70
2022/06/20 12:23:34;;;;;;;4.80;2.70;;;;;;;-144.47;74.80;53279.16;5048833;28;20063;-69
2022/06/20 12:26:16;;;;;;;9.32;2.72;;;;;;;-144.47;75.05;53277.19;5035198;28;20045;-70
2022/06/20 12:28:48;;;;;;;6.55;2.70;;;;;;;-144.47;75.76;53316.91;5021760;28;20057;-71
2022/06/20 12:31:22;;;;;;;11.25;2.55;;;;;;;-144.47;75.65;53336.78;5031526;28;20415;-71
2022/06/20 12:33:52;;;;;;;3.55;1.73;;;;;;;-144.47;73.73;53289.09;5031893;28;20160;-72
2022/06/20 12:36:28;;;;;;;2.88;1.50;;;;;;;-144.47;74.32;53303.00;5049931;28;20029;-71
2022/06/20 12:39:02;;;;;;;4.22;2.00;;;;;;;-144.47;74.04;53350.69;5037827;28;20036;-69
2022/06/20 12:41:33;;;;;;;3.22;1.63;;;;;;;-144.47;73.61;53344.72;5032437;28;20061;-70
2022/06/20 12:44:27;;;;;;;4.05;1.45;;;;;;;-144.47;73.52;53314.91;5031990;28;20609;-71
2022/06/20 12:47:11;;;;;;;8.65;1.73;;;;;;;-144.47;73.80;53275.19;5043754;28;20043;-71
2022/06/20 12:49:54;;;;;;;3.25;1.52;;;;;;;-144.47;73.87;53283.13;5027618;28;20029;-71
2022/06/20 12:52:44;;;;;;;4.68;1.45;;;;;;;-144.47;71.75;53303.00;5044279;28;20116;-71
2022/06/20 12:55:39;;;;;;;4.20;1.67;;;;;;;-144.47;71.08;53281.16;5030269;28;20180;-71
2022/06/20 12:58:20;;;;;;;4.57;1.40;;;;;;;-144.47;70.48;53308.97;5031436;28;20101;-70
2022/06/20 13:00:57;;;;;;;4.47;1.60;;;;;;;-144.47;70.26;53350.69;5026047;28;20021;-71